createdAt,value
2018-06-23T00:00:44.672Z,11.37
2018-06-23T00:01:44.902Z,11.37
2018-06-23T00:02:45.127Z,11.27
2018-06-23T00:03:45.353Z,11.18
2018-06-23T00:04:45.580Z,11.15
2018-06-23T00:05:45.808Z,11.19
2018-06-23T00:06:46.035Z,11.17
2018-06-23T00:07:46.260Z,11.15
2018-06-23T00:08:46.489Z,11.23
2018-06-23T00:09:46.718Z,11.19
2018-06-23T00:10:46.945Z,11.15
2018-06-23T00:11:47.173Z,11.25
2018-06-23T00:12:47.400Z,11.33
2018-06-23T00:13:47.638Z,11.22
2018-06-23T00:14:47.865Z,11.23
2018-06-23T00:15:48.095Z,11.25
2018-06-23T00:16:48.331Z,11.22
2018-06-23T00:17:48.557Z,11.25
2018-06-23T00:18:48.763Z,11.30
2018-06-23T00:19:49.013Z,11.19
2018-06-23T00:20:49.237Z,11.17
2018-06-23T00:21:49.463Z,11.12
2018-06-23T00:22:49.687Z,10.94
2018-06-23T00:23:49.912Z,10.82
2018-06-23T00:24:50.144Z,10.97
2018-06-23T00:25:50.367Z,10.89
2018-06-23T00:26:50.593Z,10.74
2018-06-23T00:27:50.820Z,10.69
2018-06-23T00:28:51.046Z,10.89
2018-06-23T00:29:51.276Z,10.81
2018-06-23T00:30:51.500Z,10.75
2018-06-23T00:31:51.723Z,10.78
2018-06-23T00:32:51.951Z,10.78
2018-06-23T00:33:52.175Z,10.84
2018-06-23T00:34:52.401Z,10.81
2018-06-23T00:35:52.628Z,10.67
2018-06-23T00:36:52.926Z,10.56
2018-06-23T00:37:53.082Z,10.46
2018-06-23T00:38:53.313Z,10.56
2018-06-23T00:39:53.540Z,10.53
2018-06-23T00:40:53.768Z,10.51
2018-06-23T00:41:53.997Z,10.59
2018-06-23T00:42:54.227Z,10.53
2018-06-23T00:43:54.456Z,10.44
2018-06-23T00:44:54.678Z,10.42
2018-06-23T00:45:54.905Z,10.59
2018-06-23T00:46:55.129Z,10.68
2018-06-23T00:47:55.364Z,10.44
2018-06-23T00:48:55.591Z,10.59
2018-06-23T00:49:55.815Z,10.54
2018-06-23T00:50:56.047Z,10.57
2018-06-23T00:51:56.322Z,10.60
2018-06-23T00:52:56.501Z,10.63
2018-06-23T00:53:56.727Z,10.63
2018-06-23T00:54:56.954Z,10.61
2018-06-23T00:55:57.182Z,10.59
2018-06-23T00:56:57.405Z,10.49
2018-06-23T00:57:57.637Z,10.64
2018-06-23T00:58:57.864Z,10.57
2018-06-23T00:59:58.089Z,10.59
2018-06-23T01:00:58.314Z,10.74
2018-06-23T01:01:58.541Z,10.74
2018-06-23T01:02:58.768Z,10.75
2018-06-23T01:03:58.993Z,10.93
2018-06-23T01:04:59.239Z,10.96
2018-06-23T01:05:59.459Z,10.89
2018-06-23T01:06:59.673Z,10.93
2018-06-23T01:07:59.902Z,10.90
2018-06-23T01:09:00.131Z,10.99
2018-06-23T01:10:00.350Z,11.00
2018-06-23T01:11:00.579Z,10.97
2018-06-23T01:12:00.809Z,11.11
2018-06-23T01:13:01.032Z,11.12
2018-06-23T01:14:01.262Z,11.00
2018-06-23T01:15:01.488Z,10.96
2018-06-23T01:16:01.712Z,11.00
2018-06-23T01:17:01.937Z,11.07
2018-06-23T01:18:02.161Z,11.17
2018-06-23T01:19:02.388Z,11.23
2018-06-23T01:20:02.613Z,11.32
2018-06-23T01:21:02.833Z,11.33
2018-06-23T01:22:03.061Z,11.35
2018-06-23T01:23:03.284Z,11.23
2018-06-23T01:24:03.512Z,11.36
2018-06-23T01:25:03.745Z,11.43
2018-06-23T01:26:03.972Z,11.41
2018-06-23T01:27:04.203Z,11.45
2018-06-23T01:28:04.430Z,11.41
2018-06-23T01:29:04.658Z,11.41
2018-06-23T01:30:04.881Z,11.40
2018-06-23T01:31:05.109Z,11.50
2018-06-23T01:32:05.339Z,11.57
2018-06-23T01:33:05.566Z,11.55
2018-06-23T01:34:05.785Z,11.60
2018-06-23T01:35:06.013Z,11.68
2018-06-23T01:36:06.237Z,11.63
2018-06-23T01:37:07.087Z,11.73
2018-06-23T01:38:06.686Z,11.63
2018-06-23T01:39:06.906Z,11.81
2018-06-23T01:40:07.133Z,11.81
2018-06-23T01:41:07.365Z,11.87
2018-06-23T01:42:07.592Z,11.90
2018-06-23T01:43:07.819Z,11.91
2018-06-23T01:44:08.049Z,11.83
2018-06-23T01:45:08.279Z,12.00
2018-06-23T01:46:08.505Z,11.95
2018-06-23T01:47:08.730Z,11.95
2018-06-23T01:48:08.955Z,12.06
2018-06-23T01:49:09.183Z,12.13
2018-06-23T01:50:09.409Z,12.13
2018-06-23T01:51:09.634Z,12.21
2018-06-23T01:52:09.860Z,12.25
2018-06-23T01:53:10.090Z,12.15
2018-06-23T01:54:10.316Z,12.15
2018-06-23T01:55:10.550Z,12.04
2018-06-23T01:56:10.770Z,12.00
2018-06-23T01:57:10.995Z,11.68
2018-06-23T01:58:11.223Z,11.65
2018-06-23T01:59:11.449Z,11.75
2018-06-23T02:00:11.685Z,11.75
2018-06-23T02:01:11.900Z,11.86
2018-06-23T02:02:12.123Z,11.80
2018-06-23T02:03:12.354Z,11.62
2018-06-23T02:04:12.583Z,11.59
2018-06-23T02:05:12.805Z,11.65
2018-06-23T02:06:13.034Z,11.65
2018-06-23T02:07:13.261Z,11.55
2018-06-23T02:08:13.481Z,11.62
2018-06-23T02:09:13.711Z,11.63
2018-06-23T02:10:13.944Z,11.54
2018-06-23T02:11:14.162Z,11.65
2018-06-23T02:12:14.391Z,11.55
2018-06-23T02:13:14.618Z,11.68
2018-06-23T02:14:14.845Z,11.59
2018-06-23T02:15:15.073Z,11.62
2018-06-23T02:16:15.304Z,11.63
2018-06-23T02:17:15.529Z,11.65
2018-06-23T02:18:15.757Z,11.51
2018-06-23T02:19:15.985Z,11.50
2018-06-23T02:20:16.212Z,11.47
2018-06-23T02:21:16.444Z,11.62
2018-06-23T02:22:16.672Z,11.66
2018-06-23T02:23:16.900Z,11.78
2018-06-23T02:24:17.129Z,11.65
2018-06-23T02:25:17.353Z,11.65
2018-06-23T02:26:17.585Z,11.50
2018-06-23T02:27:17.810Z,11.48
2018-06-23T02:28:18.036Z,11.44
2018-06-23T02:29:18.264Z,11.47
2018-06-23T02:30:18.490Z,11.57
2018-06-23T02:31:18.717Z,11.62
2018-06-23T02:32:18.945Z,11.69
2018-06-23T02:33:19.167Z,11.72
2018-06-23T02:34:19.396Z,11.77
2018-06-23T02:35:19.624Z,11.66
2018-06-23T02:36:19.853Z,11.80
2018-06-23T02:37:20.076Z,11.77
2018-06-23T02:38:20.304Z,11.80
2018-06-23T02:39:20.530Z,11.72
2018-06-23T02:40:20.757Z,11.78
2018-06-23T02:41:20.979Z,11.80
2018-06-23T02:42:21.206Z,11.75
2018-06-23T02:43:21.433Z,11.83
2018-06-23T02:44:21.659Z,11.84
2018-06-23T02:45:21.888Z,11.80
2018-06-23T02:46:22.113Z,11.84
2018-06-23T02:47:22.339Z,11.84
2018-06-23T02:48:22.563Z,11.83
2018-06-23T02:49:22.785Z,11.77
2018-06-23T02:50:23.013Z,11.63
2018-06-23T02:51:23.241Z,11.44
2018-06-23T02:52:23.467Z,11.60
2018-06-23T02:53:23.695Z,11.60
2018-06-23T02:54:23.932Z,11.60
2018-06-23T02:55:24.146Z,11.73
2018-06-23T02:56:24.374Z,11.80
2018-06-23T02:57:24.607Z,11.72
2018-06-23T02:58:24.815Z,11.73
2018-06-23T02:59:25.061Z,11.73
2018-06-23T03:00:25.288Z,11.84
2018-06-23T03:01:25.517Z,11.91
2018-06-23T03:02:25.744Z,11.83
2018-06-23T03:03:25.974Z,11.94
2018-06-23T03:04:26.206Z,11.84
2018-06-23T03:05:26.434Z,11.88
2018-06-23T03:06:26.659Z,11.87
2018-06-23T03:07:26.882Z,11.87
2018-06-23T03:08:27.115Z,11.72
2018-06-23T03:09:27.346Z,11.84
2018-06-23T03:10:27.576Z,11.83
2018-06-23T03:11:27.804Z,11.94
2018-06-23T03:12:28.020Z,11.84
2018-06-23T03:13:28.255Z,11.94
2018-06-23T03:14:28.476Z,11.70
2018-06-23T03:15:28.698Z,11.83
2018-06-23T03:16:28.926Z,11.81
2018-06-23T03:17:29.156Z,11.75
2018-06-23T03:18:29.390Z,11.99
2018-06-23T03:19:29.614Z,11.95
2018-06-23T03:20:29.843Z,11.97
2018-06-23T03:21:30.072Z,11.97
2018-06-23T03:22:30.301Z,11.88
2018-06-23T03:23:30.521Z,11.88
2018-06-23T03:24:30.749Z,11.95
2018-06-23T03:25:30.976Z,11.94
2018-06-23T03:26:31.200Z,11.95
2018-06-23T03:27:31.425Z,11.86
2018-06-23T03:28:31.653Z,11.83
2018-06-23T03:29:31.882Z,12.00
2018-06-23T03:30:32.114Z,11.95
2018-06-23T03:31:32.330Z,11.99
2018-06-23T03:32:32.561Z,12.12
2018-06-23T03:33:32.788Z,12.12
2018-06-23T03:34:33.014Z,11.97
2018-06-23T03:35:33.239Z,12.00
2018-06-23T03:36:33.468Z,11.95
2018-06-23T03:37:33.697Z,12.04
2018-06-23T03:38:33.926Z,12.12
2018-06-23T03:39:34.158Z,12.09
2018-06-23T03:40:34.382Z,12.10
2018-06-23T03:41:34.608Z,12.02
2018-06-23T03:42:34.833Z,12.06
2018-06-23T03:43:35.066Z,12.09
2018-06-23T03:44:35.289Z,12.15
2018-06-23T03:45:35.515Z,12.13
2018-06-23T03:46:35.743Z,12.18
2018-06-23T03:47:35.967Z,12.28
2018-06-23T03:48:36.197Z,12.21
2018-06-23T03:49:36.430Z,12.22
2018-06-23T03:50:36.653Z,12.24
2018-06-23T03:51:36.881Z,12.15
2018-06-23T03:52:37.109Z,12.25
2018-06-23T03:53:37.337Z,12.28
2018-06-23T03:54:37.566Z,12.36
2018-06-23T03:55:37.791Z,12.39
2018-06-23T03:56:38.021Z,12.29
2018-06-23T03:57:38.250Z,12.42
2018-06-23T03:58:38.476Z,12.36
2018-06-23T03:59:38.703Z,12.43
2018-06-23T04:00:38.930Z,12.49
2018-06-23T04:01:39.160Z,12.53
2018-06-23T04:02:39.383Z,12.64
2018-06-23T04:03:39.616Z,12.62
2018-06-23T04:04:39.831Z,12.57
2018-06-23T04:05:40.065Z,12.54
2018-06-23T04:06:40.284Z,12.64
2018-06-23T04:07:40.511Z,12.64
2018-06-23T04:08:40.738Z,12.67
2018-06-23T04:09:40.965Z,12.70
2018-06-23T04:10:41.192Z,12.79
2018-06-23T04:11:41.422Z,12.75
2018-06-23T04:12:41.651Z,12.75
2018-06-23T04:13:41.880Z,12.83
2018-06-23T04:14:42.103Z,12.85
2018-06-23T04:15:42.330Z,12.79
2018-06-23T04:16:42.582Z,12.91
2018-06-23T04:17:42.787Z,12.95
2018-06-23T04:18:43.012Z,13.11
2018-06-23T04:19:43.239Z,13.03
2018-06-23T04:20:43.465Z,13.05
2018-06-23T04:21:43.694Z,13.05
2018-06-23T04:22:43.924Z,13.09
2018-06-23T04:23:44.147Z,13.05
2018-06-23T04:24:44.367Z,13.08
2018-06-23T04:25:44.597Z,13.22
2018-06-23T04:26:44.829Z,13.16
2018-06-23T04:27:45.052Z,13.30
2018-06-23T04:28:45.276Z,13.27
2018-06-23T04:29:45.504Z,13.35
2018-06-23T04:30:45.736Z,13.31
2018-06-23T04:31:45.965Z,13.39
2018-06-23T04:32:46.187Z,13.35
2018-06-23T04:33:46.414Z,13.42
2018-06-23T04:34:46.645Z,13.42
2018-06-23T04:35:46.863Z,13.49
2018-06-23T04:36:47.093Z,13.57
2018-06-23T04:37:47.320Z,13.52
2018-06-23T04:38:47.546Z,13.62
2018-06-23T04:39:47.775Z,13.60
2018-06-23T04:40:48.006Z,13.65
2018-06-23T04:41:48.235Z,13.72
2018-06-23T04:42:48.462Z,13.79
2018-06-23T04:43:48.694Z,13.71
2018-06-23T04:44:48.923Z,13.74
2018-06-23T04:45:49.152Z,13.89
2018-06-23T04:46:49.378Z,13.86
2018-06-23T04:47:49.608Z,13.90
2018-06-23T04:48:49.839Z,13.86
2018-06-23T04:49:50.062Z,14.07
2018-06-23T04:50:50.291Z,13.96
2018-06-23T04:51:50.516Z,14.08
2018-06-23T04:52:50.745Z,14.11
2018-06-23T04:53:50.978Z,14.22
2018-06-23T04:54:51.201Z,14.28
2018-06-23T04:55:51.429Z,14.28
2018-06-23T04:56:51.655Z,14.30
2018-06-23T04:57:51.883Z,14.30
2018-06-23T04:58:52.112Z,14.41
2018-06-23T04:59:52.338Z,14.50
2018-06-23T05:00:52.568Z,14.54
2018-06-23T05:01:52.793Z,14.59
2018-06-23T05:02:53.022Z,14.59
2018-06-23T05:03:53.255Z,14.60
2018-06-23T05:04:53.486Z,14.59
2018-06-23T05:05:53.713Z,14.54
2018-06-23T05:06:53.941Z,14.63
2018-06-23T05:07:54.166Z,14.66
2018-06-23T05:08:54.397Z,14.77
2018-06-23T05:09:54.622Z,14.92
2018-06-23T05:10:54.854Z,14.86
2018-06-23T05:11:55.081Z,14.99
2018-06-23T05:12:55.307Z,14.94
2018-06-23T05:13:55.540Z,14.97
2018-06-23T05:14:55.764Z,15.03
2018-06-23T05:15:55.996Z,14.91
2018-06-23T05:16:56.225Z,14.89
2018-06-23T05:17:56.450Z,14.91
2018-06-23T05:18:56.677Z,14.96
2018-06-23T05:19:56.906Z,14.92
2018-06-23T05:20:57.133Z,14.99
2018-06-23T05:21:57.363Z,14.92
2018-06-23T05:22:57.591Z,14.97
2018-06-23T05:23:57.821Z,14.96
2018-06-23T05:24:58.044Z,14.99
2018-06-23T05:25:58.284Z,15.06
2018-06-23T05:26:58.523Z,15.00
2018-06-23T05:27:58.744Z,15.07
2018-06-23T05:28:58.971Z,15.22
2018-06-23T05:29:59.201Z,15.25
2018-06-23T05:30:59.432Z,15.29
2018-06-23T05:31:59.650Z,15.33
2018-06-23T05:32:59.899Z,15.29
2018-06-23T05:34:00.129Z,15.43
2018-06-23T05:35:00.352Z,15.40
2018-06-23T05:36:00.583Z,15.58
2018-06-23T05:37:00.814Z,15.59
2018-06-23T05:38:01.039Z,15.80
2018-06-23T05:39:01.267Z,15.97
2018-06-23T05:40:01.511Z,16.17
2018-06-23T05:41:01.722Z,16.42
2018-06-23T05:42:01.951Z,16.60
2018-06-23T05:43:02.180Z,16.64
2018-06-23T05:44:02.421Z,16.65
2018-06-23T05:45:02.628Z,16.75
2018-06-23T05:46:02.851Z,16.86
2018-06-23T05:47:03.084Z,16.94
2018-06-23T05:48:03.317Z,17.01
2018-06-23T05:49:03.541Z,17.01
2018-06-23T05:50:03.775Z,17.02
2018-06-23T05:51:04.003Z,17.08
2018-06-23T05:52:04.230Z,17.06
2018-06-23T05:53:04.461Z,17.12
2018-06-23T05:54:04.688Z,17.12
2018-06-23T05:55:04.924Z,17.08
2018-06-23T05:56:05.146Z,17.20
2018-06-23T05:57:05.380Z,17.20
2018-06-23T05:58:05.607Z,17.22
2018-06-23T05:59:05.835Z,17.27
2018-06-23T06:00:06.060Z,17.29
2018-06-23T06:01:06.291Z,17.44
2018-06-23T06:02:06.527Z,17.42
2018-06-23T06:03:06.756Z,17.65
2018-06-23T06:04:06.985Z,18.43
2018-06-23T06:05:07.218Z,19.31
2018-06-23T06:06:07.444Z,19.84
2018-06-23T06:07:07.731Z,20.70
2018-06-23T06:08:07.907Z,21.02
2018-06-23T06:09:08.140Z,21.24
2018-06-23T06:10:08.362Z,21.05
2018-06-23T06:11:08.594Z,20.80
2018-06-23T06:12:08.828Z,20.62
2018-06-23T06:13:09.059Z,20.44
2018-06-23T06:14:09.300Z,20.22
2018-06-23T06:15:09.520Z,19.95
2018-06-23T06:16:09.746Z,19.88
2018-06-23T06:17:09.979Z,19.66
2018-06-23T06:18:10.213Z,19.48
2018-06-23T06:19:10.448Z,19.26
2018-06-23T06:20:10.677Z,18.86
2018-06-23T06:21:10.906Z,18.71
2018-06-23T06:22:11.135Z,18.66
2018-06-23T06:23:11.364Z,18.28
2018-06-23T06:24:11.598Z,18.03
2018-06-23T06:25:11.828Z,18.15
2018-06-23T06:26:12.060Z,18.15
2018-06-23T06:27:12.289Z,17.92
2018-06-23T06:28:12.523Z,17.80
2018-06-23T06:29:12.757Z,17.83
2018-06-23T06:30:12.986Z,17.86
2018-06-23T06:31:13.220Z,17.80
2018-06-23T06:32:13.451Z,17.76
2018-06-23T06:33:13.681Z,17.78
2018-06-23T06:34:13.909Z,17.79
2018-06-23T06:35:14.133Z,17.70
2018-06-23T06:36:14.371Z,17.71
2018-06-23T06:37:14.605Z,17.60
2018-06-23T06:38:14.837Z,17.51
2018-06-23T06:39:15.069Z,17.65
2018-06-23T06:40:15.301Z,17.65
2018-06-23T06:41:15.529Z,17.70
2018-06-23T06:42:15.760Z,17.71
2018-06-23T06:43:15.994Z,17.72
2018-06-23T06:44:16.233Z,17.63
2018-06-23T06:45:16.458Z,17.67
2018-06-23T06:46:16.690Z,17.70
2018-06-23T06:47:16.915Z,17.63
2018-06-23T06:48:17.143Z,17.56
2018-06-23T06:49:17.414Z,17.63
2018-06-23T06:50:17.622Z,17.57
2018-06-23T06:51:17.842Z,17.49
2018-06-23T06:52:18.071Z,17.60
2018-06-23T06:53:18.304Z,17.56
2018-06-23T06:54:18.536Z,17.70
2018-06-23T06:55:18.764Z,17.76
2018-06-23T06:56:18.994Z,17.78
2018-06-23T06:57:19.221Z,17.80
2018-06-23T06:58:19.452Z,17.82
2018-06-23T06:59:19.677Z,17.80
2018-06-23T07:00:19.907Z,17.70
2018-06-23T07:01:20.139Z,17.85
2018-06-23T07:02:20.365Z,17.82
2018-06-23T07:03:20.598Z,18.00
2018-06-23T07:04:20.827Z,17.98
2018-06-23T07:05:21.057Z,17.97
2018-06-23T07:06:21.287Z,17.97
2018-06-23T07:07:21.517Z,18.05
2018-06-23T07:08:21.749Z,18.03
2018-06-23T07:09:21.990Z,18.01
2018-06-23T07:10:22.204Z,17.97
2018-06-23T07:11:22.434Z,18.08
2018-06-23T07:12:22.664Z,18.10
2018-06-23T07:13:22.898Z,18.25
2018-06-23T07:14:23.126Z,18.16
2018-06-23T07:15:23.354Z,18.16
2018-06-23T07:16:23.585Z,18.18
2018-06-23T07:17:23.816Z,18.03
2018-06-23T07:18:24.044Z,18.16
2018-06-23T07:19:24.276Z,18.13
2018-06-23T07:20:24.508Z,18.22
2018-06-23T07:21:24.740Z,18.23
2018-06-23T07:22:24.971Z,18.23
2018-06-23T07:23:25.209Z,18.18
2018-06-23T07:24:25.431Z,18.07
2018-06-23T07:25:25.670Z,18.03
2018-06-23T07:26:25.894Z,17.76
2018-06-23T07:27:26.126Z,17.78
2018-06-23T07:28:26.356Z,17.76
2018-06-23T07:29:26.588Z,17.70
2018-06-23T07:30:26.818Z,17.52
2018-06-23T07:31:27.049Z,17.51
2018-06-23T07:32:27.284Z,17.46
2018-06-23T07:33:27.513Z,17.42
2018-06-23T07:34:27.833Z,17.44
2018-06-23T07:35:27.974Z,17.16
2018-06-23T07:36:28.202Z,17.27
2018-06-23T07:37:28.431Z,17.22
2018-06-23T07:38:28.665Z,17.16
2018-06-23T07:39:28.893Z,17.16
2018-06-23T07:40:29.124Z,17.08
2018-06-23T07:41:29.355Z,16.96
2018-06-23T07:42:29.582Z,17.04
2018-06-23T07:43:29.809Z,17.04
2018-06-23T07:44:30.038Z,17.08
2018-06-23T07:45:30.268Z,17.09
2018-06-23T07:46:30.552Z,17.12
2018-06-23T07:47:30.725Z,17.06
2018-06-23T07:48:30.957Z,17.02
2018-06-23T07:49:31.184Z,17.05
2018-06-23T07:50:31.415Z,17.04
2018-06-23T07:51:31.646Z,17.12
2018-06-23T07:52:31.874Z,17.09
2018-06-23T07:53:32.104Z,17.06
2018-06-23T07:54:32.337Z,17.08
2018-06-23T07:55:32.563Z,17.12
2018-06-23T07:56:32.793Z,17.14
2018-06-23T07:57:33.024Z,17.16
2018-06-23T07:58:33.248Z,17.11
2018-06-23T07:59:33.480Z,17.04
2018-06-23T08:00:33.699Z,17.09
2018-06-23T08:01:33.957Z,17.01
2018-06-23T08:02:34.158Z,17.02
2018-06-23T08:03:34.389Z,17.02
2018-06-23T08:04:34.617Z,17.05
2018-06-23T08:05:34.845Z,17.02
2018-06-23T08:06:35.105Z,17.01
2018-06-23T08:07:35.310Z,17.04
2018-06-23T08:08:35.544Z,16.94
2018-06-23T08:09:35.779Z,16.97
2018-06-23T08:10:36.015Z,16.96
2018-06-23T08:11:36.266Z,16.91
2018-06-23T08:12:36.483Z,16.83
2018-06-23T08:13:36.714Z,16.86
2018-06-23T08:14:36.948Z,16.81
2018-06-23T08:15:37.176Z,16.84
2018-06-23T08:16:37.408Z,16.86
2018-06-23T08:17:37.637Z,16.75
2018-06-23T08:18:37.922Z,16.86
2018-06-23T08:19:38.101Z,16.76
2018-06-23T08:20:38.328Z,16.89
2018-06-23T08:21:38.558Z,16.90
2018-06-23T08:22:38.788Z,16.87
2018-06-23T08:23:39.010Z,16.97
2018-06-23T08:24:39.243Z,17.14
2018-06-23T08:25:39.468Z,17.19
2018-06-23T08:26:39.909Z,17.22
2018-06-23T08:27:39.924Z,17.20
2018-06-23T08:28:40.156Z,17.12
2018-06-23T08:29:40.386Z,17.12
2018-06-23T08:30:40.621Z,17.06
2018-06-23T08:31:40.845Z,16.91
2018-06-23T08:32:41.071Z,17.01
2018-06-23T08:33:41.300Z,17.08
2018-06-23T08:34:41.530Z,17.08
2018-06-23T08:35:41.751Z,17.26
2018-06-23T08:36:41.980Z,17.23
2018-06-23T08:37:42.213Z,17.29
2018-06-23T08:38:42.440Z,17.36
2018-06-23T08:39:42.674Z,17.44
2018-06-23T08:40:42.901Z,17.41
2018-06-23T08:41:43.133Z,17.38
2018-06-23T08:42:43.365Z,17.51
2018-06-23T08:43:43.674Z,17.51
2018-06-23T08:44:43.822Z,17.59
2018-06-23T08:45:44.052Z,17.63
2018-06-23T08:46:44.283Z,17.72
2018-06-23T08:47:44.509Z,17.74
2018-06-23T08:48:44.736Z,17.74
2018-06-23T08:49:44.993Z,17.68
2018-06-23T08:50:45.222Z,17.68
2018-06-23T08:51:45.429Z,17.63
2018-06-23T08:52:45.637Z,17.56
2018-06-23T08:53:45.868Z,17.54
2018-06-23T08:54:46.097Z,17.38
2018-06-23T08:55:46.327Z,17.42
2018-06-23T08:56:46.592Z,17.38
2018-06-23T08:57:46.780Z,17.45
2018-06-23T08:58:47.007Z,17.45
2018-06-23T08:59:47.234Z,17.48
2018-06-23T09:00:47.477Z,17.57
2018-06-23T09:01:47.769Z,17.63
2018-06-23T09:02:47.949Z,17.60
2018-06-23T09:03:48.167Z,17.60
2018-06-23T09:04:48.395Z,17.71
2018-06-23T09:05:48.628Z,17.71
2018-06-23T09:06:48.852Z,17.74
2018-06-23T09:07:49.084Z,17.78
2018-06-23T09:08:49.315Z,17.79
2018-06-23T09:09:49.536Z,17.78
2018-06-23T09:10:49.753Z,17.80
2018-06-23T09:11:49.969Z,17.85
2018-06-23T09:12:50.193Z,17.78
2018-06-23T09:13:50.418Z,17.76
2018-06-23T09:14:50.643Z,17.71
2018-06-23T09:15:50.870Z,17.67
2018-06-23T09:16:51.162Z,17.65
2018-06-23T09:17:51.323Z,17.74
2018-06-23T09:18:51.545Z,17.76
2018-06-23T09:19:51.793Z,17.74
2018-06-23T09:20:52.018Z,17.79
2018-06-23T09:21:52.244Z,17.76
2018-06-23T09:22:52.472Z,17.76
2018-06-23T09:23:52.703Z,17.78
2018-06-23T09:24:52.932Z,17.76
2018-06-23T09:25:53.193Z,17.85
2018-06-23T09:26:53.396Z,17.82
2018-06-23T09:27:53.625Z,17.71
2018-06-23T09:28:53.871Z,17.74
2018-06-23T09:29:54.102Z,17.72
2018-06-23T09:30:54.332Z,17.79
2018-06-23T09:31:54.562Z,17.82
2018-06-23T09:32:54.809Z,17.80
2018-06-23T09:33:55.028Z,17.70
2018-06-23T09:34:55.249Z,17.72
2018-06-23T09:35:55.482Z,17.78
2018-06-23T09:36:55.713Z,17.70
2018-06-23T09:37:55.954Z,17.57
2018-06-23T09:38:56.167Z,17.65
2018-06-23T09:39:56.398Z,17.72
2018-06-23T09:40:56.632Z,17.68
2018-06-23T09:41:56.858Z,17.70
2018-06-23T09:42:57.088Z,17.71
2018-06-23T09:43:57.315Z,17.72
2018-06-23T09:44:57.547Z,17.65
2018-06-23T09:45:57.796Z,17.60
2018-06-23T09:46:58.004Z,17.60
2018-06-23T09:47:58.232Z,17.48
2018-06-23T09:48:58.466Z,17.44
2018-06-23T09:49:58.691Z,17.42
2018-06-23T09:50:58.925Z,17.45
2018-06-23T09:51:59.155Z,17.45
2018-06-23T09:52:59.382Z,17.42
2018-06-23T09:53:59.613Z,17.39
2018-06-23T09:54:59.850Z,17.44
2018-06-23T09:56:00.166Z,17.34
2018-06-23T09:57:00.286Z,17.26
2018-06-23T09:58:00.537Z,17.19
2018-06-23T09:59:00.766Z,17.22
2018-06-23T10:00:00.992Z,17.19
2018-06-23T10:01:01.229Z,17.14
2018-06-23T10:02:01.445Z,17.22
2018-06-23T10:03:01.684Z,17.26
2018-06-23T10:04:01.909Z,17.26
2018-06-23T10:05:02.138Z,17.27
2018-06-23T10:06:02.365Z,17.12
2018-06-23T10:07:02.593Z,17.12
2018-06-23T10:08:02.811Z,17.19
2018-06-23T10:09:03.046Z,17.12
2018-06-23T10:10:03.282Z,17.14
2018-06-23T10:11:03.507Z,17.11
2018-06-23T10:12:03.739Z,17.06
2018-06-23T10:13:03.966Z,17.05
2018-06-23T10:14:04.194Z,16.97
2018-06-23T10:15:04.413Z,17.01
2018-06-23T10:16:04.657Z,16.99
2018-06-23T10:17:04.886Z,17.04
2018-06-23T10:18:05.130Z,17.09
2018-06-23T10:19:05.344Z,17.09
2018-06-23T10:20:05.572Z,17.06
2018-06-23T10:21:05.798Z,17.16
2018-06-23T10:22:06.028Z,17.16
2018-06-23T10:23:06.282Z,17.04
2018-06-23T10:24:06.503Z,17.20
2018-06-23T10:25:06.712Z,17.20
2018-06-23T10:26:06.943Z,17.20
2018-06-23T10:27:07.175Z,17.20
2018-06-23T10:28:07.413Z,17.24
2018-06-23T10:29:07.670Z,17.15
2018-06-23T10:30:07.879Z,17.12
2018-06-23T10:31:08.097Z,17.09
2018-06-23T10:32:08.330Z,16.93
2018-06-23T10:33:08.546Z,16.86
2018-06-23T10:34:08.760Z,16.84
2018-06-23T10:35:08.987Z,16.93
2018-06-23T10:36:09.241Z,16.97
2018-06-23T10:37:09.457Z,16.99
2018-06-23T10:38:09.670Z,16.96
2018-06-23T10:39:09.912Z,16.99
2018-06-23T10:40:10.132Z,17.09
2018-06-23T10:41:10.345Z,17.09
2018-06-23T10:42:10.604Z,17.15
2018-06-23T10:43:10.809Z,17.06
2018-06-23T10:44:11.042Z,17.06
2018-06-23T10:45:11.254Z,17.09
2018-06-23T10:46:11.508Z,17.05
2018-06-23T10:47:11.711Z,17.08
2018-06-23T10:48:11.936Z,17.08
2018-06-23T10:49:12.163Z,16.97
2018-06-23T10:50:12.413Z,16.93
2018-06-23T10:51:12.665Z,16.87
2018-06-23T10:52:12.838Z,16.87
2018-06-23T10:53:13.066Z,16.84
2018-06-23T10:54:13.286Z,16.83
2018-06-23T10:55:13.517Z,16.68
2018-06-23T10:56:13.744Z,16.47
2018-06-23T10:57:13.991Z,16.49
2018-06-23T10:58:14.207Z,16.65
2018-06-23T10:59:14.438Z,16.69
2018-06-23T11:00:14.669Z,16.79
2018-06-23T11:01:14.895Z,16.68
2018-06-23T11:02:15.123Z,16.56
2018-06-23T11:03:15.357Z,16.68
2018-06-23T11:04:15.589Z,16.58
2018-06-23T11:05:15.820Z,16.54
2018-06-23T11:06:16.050Z,16.50
2018-06-23T11:07:16.290Z,16.64
2018-06-23T11:08:16.513Z,16.66
2018-06-23T11:09:16.742Z,16.65
2018-06-23T11:10:16.972Z,16.84
2018-06-23T11:11:17.202Z,16.81
2018-06-23T11:12:17.431Z,16.86
2018-06-23T11:13:17.660Z,16.93
2018-06-23T11:14:17.895Z,17.04
2018-06-23T11:15:18.127Z,17.16
2018-06-23T11:16:18.353Z,17.31
2018-06-23T11:17:18.587Z,17.54
2018-06-23T11:18:18.816Z,17.64
2018-06-23T11:19:19.050Z,17.82
2018-06-23T11:20:19.286Z,17.94
2018-06-23T11:21:19.527Z,18.25
2018-06-23T11:22:19.760Z,18.40
2018-06-23T11:23:19.992Z,18.55
2018-06-23T11:24:20.291Z,18.58
2018-06-23T11:25:20.455Z,18.60
2018-06-23T11:26:20.683Z,18.60
2018-06-23T11:27:20.917Z,18.50
2018-06-23T11:28:21.143Z,18.52
2018-06-23T11:29:21.377Z,18.44
2018-06-23T11:30:21.604Z,18.45
2018-06-23T11:31:21.848Z,18.40
2018-06-23T11:32:22.062Z,18.47
2018-06-23T11:33:22.294Z,18.50
2018-06-23T11:34:22.521Z,18.44
2018-06-23T11:35:22.758Z,18.45
2018-06-23T11:36:22.992Z,18.55
2018-06-23T11:37:23.220Z,18.53
2018-06-23T11:38:23.454Z,18.55
2018-06-23T11:39:23.686Z,18.60
2018-06-23T11:40:23.915Z,18.56
2018-06-23T11:41:24.142Z,18.58
2018-06-23T11:42:24.389Z,18.62
2018-06-23T11:43:24.618Z,18.55
2018-06-23T11:44:24.852Z,18.49
2018-06-23T11:45:25.079Z,18.59
2018-06-23T11:46:25.309Z,18.65
2018-06-23T11:47:25.537Z,18.60
2018-06-23T11:48:25.769Z,18.59
2018-06-23T11:49:26.000Z,18.49
2018-06-23T11:50:26.233Z,18.43
2018-06-23T11:51:26.464Z,18.47
2018-06-23T11:52:26.906Z,18.44
2018-06-23T11:53:26.928Z,18.45
2018-06-23T11:54:27.159Z,18.47
2018-06-23T11:55:27.402Z,18.63
2018-06-23T11:56:27.628Z,18.66
2018-06-23T11:57:27.854Z,18.70
2018-06-23T11:58:28.085Z,18.78
2018-06-23T11:59:28.313Z,18.89
2018-06-23T12:00:28.554Z,18.93
2018-06-23T12:01:28.782Z,19.12
2018-06-23T12:02:29.015Z,19.09
2018-06-23T12:03:29.245Z,19.21
2018-06-23T12:04:29.478Z,19.45
2018-06-23T12:05:29.709Z,19.69
2018-06-23T12:06:29.940Z,19.79
2018-06-23T12:07:30.170Z,19.66
2018-06-23T12:08:30.401Z,19.67
2018-06-23T12:09:30.629Z,19.74
2018-06-23T12:10:30.865Z,19.84
2018-06-23T12:11:31.089Z,19.77
2018-06-23T12:12:31.323Z,19.89
2018-06-23T12:13:31.561Z,19.99
2018-06-23T12:14:31.781Z,19.95
2018-06-23T12:15:32.014Z,20.02
2018-06-23T12:16:32.244Z,20.06
2018-06-23T12:17:32.481Z,20.18
2018-06-23T12:18:32.712Z,20.24
2018-06-23T12:19:32.940Z,20.26
2018-06-23T12:20:33.175Z,20.41
2018-06-23T12:21:33.415Z,20.52
2018-06-23T12:22:33.635Z,20.63
2018-06-23T12:23:33.866Z,20.63
2018-06-23T12:24:34.097Z,20.78
2018-06-23T12:25:34.453Z,20.78
2018-06-23T12:26:34.565Z,20.85
2018-06-23T12:27:34.797Z,20.90
2018-06-23T12:28:35.034Z,21.02
2018-06-23T12:29:35.257Z,20.92
2018-06-23T12:30:35.493Z,21.02
2018-06-23T12:31:35.728Z,21.05
2018-06-23T12:32:35.962Z,20.99
2018-06-23T12:33:38.720Z,20.97
2018-06-23T12:34:36.459Z,20.87
2018-06-23T12:35:36.695Z,20.58
2018-06-23T12:36:36.936Z,20.65
2018-06-23T12:37:37.161Z,20.80
2018-06-23T12:38:37.400Z,20.74
2018-06-23T12:39:37.632Z,20.75
2018-06-23T12:40:37.863Z,20.93
2018-06-23T12:41:38.162Z,20.96
2018-06-23T12:42:38.331Z,20.95
2018-06-23T12:43:38.563Z,20.96
2018-06-23T12:44:38.798Z,21.03
2018-06-23T12:45:39.030Z,20.99
2018-06-23T12:46:39.268Z,20.95
2018-06-23T12:47:39.495Z,20.77
2018-06-23T12:48:39.729Z,20.74
2018-06-23T12:49:39.966Z,20.72
2018-06-23T12:50:40.206Z,20.56
2018-06-23T12:51:40.441Z,20.44
2018-06-23T12:52:40.674Z,20.34
2018-06-23T12:53:40.907Z,20.36
2018-06-23T12:54:41.142Z,20.34
2018-06-23T12:55:41.411Z,20.41